Aviation Digital Data Service (ADDS)

Output produced by METARs form (0123 UTC 23 July 2017)
found at http://www.aviationweather.gov/adds/metars/
 
VNKT 230120Z 00000KT 8000 FEW008 SCT030 BKN100 22/21 Q1009 NOSIG
TAF VNKT 222300Z 2300/2324 VRB02KT 7000 FEW010 SCT025 BKN100 
     PROB30 2300/2302 00000KT 5000 -RA/BR FEW025CB 
     BECMG 2304/2306 19005KT 8000 FEW020 SCT100 
     PROB30 2308/2312 26008KT 6000 -SHRA/RA FEW025CB SCT030 BKN100 
     BECMG 2313/2314 VRB02KT 7000 FEW015 SCT030 BKN100